METAR Data
IDs: Format: Raw Decoded Include TAF

Data at: 0117 UTC 06 Dec 2019

KMMI 060055Z AUTO 00000KT 10SM CLR 04/M00 A3016 RMK A01
KMMI 060035Z AUTO 00000KT 10SM CLR 04/M00 A3016 RMK A01
KMMI 060015Z AUTO 00000KT 10SM CLR 05/00 A3015 RMK A01
KMMI 052355Z AUTO 00000KT 10SM CLR 05/00 A3015 RMK A01
KMMI 052335Z AUTO 00000KT 10SM CLR 07/00 A3015 RMK A01
KMMI 052315Z AUTO 00000KT 10SM CLR 07/00 A3015 RMK A01
KMMI 052255Z AUTO 00000KT 10SM CLR 09/M00 A3015 RMK A01
KMMI 052235Z AUTO 00000KT 10SM CLR 11/M01 A3014 RMK A01
KMMI 052215Z AUTO 00000KT 10SM CLR 13/M01 A3014 RMK A01
KMMI 052155Z AUTO 00000KT 10SM CLR 14/M02 A3014 RMK A01
KMMI 052135Z AUTO 00000KT 10SM CLR 15/M02 A3014 RMK A01
KMMI 052115Z AUTO 00000KT 10SM CLR 15/M02 A3014 RMK A01
KMMI 052055Z AUTO 00000KT 10SM CLR 15/M02 A3014 RMK A01
KMMI 052035Z AUTO 00000KT 10SM CLR 15/M02 A3014 RMK A01
KMMI 052015Z AUTO 16003KT 10SM CLR 15/M02 A3014 RMK A01
KMMI 051955Z AUTO VRB04KT 10SM CLR 15/M02 A3014 RMK A01
KMMI 051935Z AUTO 10004KT 10SM CLR 14/M02 A3014 RMK A01
KMMI 051915Z AUTO 00000KT 10SM CLR 14/M02 A3014 RMK A01
KMMI 051855Z AUTO 23003KT 10SM CLR 14/M02 A3015 RMK A01
KMMI 051835Z AUTO 00000KT 10SM CLR 14/M02 A3016 RMK A01
KMMI 051815Z AUTO 25004KT 10SM CLR 13/M02 A3016 RMK A01
KMMI 051755Z AUTO VRB04KT 10SM CLR 13/M01 A3017 RMK A01
KMMI 051735Z AUTO 26004KT 10SM CLR 12/M01 A3017 RMK A01
KMMI 051715Z AUTO 18004KT 10SM CLR 12/M01 A3018 RMK A01
KMMI 051655Z AUTO VRB04KT 10SM CLR 11/00 A3019 RMK A01
KMMI 051615Z AUTO 24005KT 10SM CLR 10/01 A3020 RMK A01
KMMI 051555Z AUTO 23004KT 10SM CLR 09/01 A3020 RMK A01
KMMI 051535Z AUTO 00000KT 10SM CLR 08/02 A3019 RMK A01
KMMI 051515Z AUTO 00000KT 10SM CLR 07/02 A3019 RMK A01
KMMI 051455Z AUTO VRB04KT 10SM CLR 05/02 A3018 RMK A01
KMMI 051435Z AUTO 00000KT 10SM CLR 04/01 A3017 RMK A01
KMMI 051415Z AUTO 00000KT 10SM CLR 02/00 A3016 RMK A01
KMMI 051355Z AUTO 00000KT 10SM CLR 00/M01 A3015 RMK A01
KMMI 051335Z AUTO 00000KT 10SM CLR M01/M02 A3014 RMK A01
KMMI 051315Z AUTO 00000KT 10SM CLR M02/M03 A3013 RMK A01
KMMI 051255Z AUTO 00000KT 10SM CLR M03/M04 A3012 RMK A01
KMMI 051235Z AUTO 00000KT 10SM CLR M03/M03 A3012 RMK A01
KMMI 051215Z AUTO 00000KT 10SM CLR M03/M03 A3011 RMK A01
KMMI 051155Z AUTO 05003KT 10SM CLR M02/M03 A3011 RMK A01
KMMI 051135Z AUTO 00000KT 10SM CLR M03/M03 A3010 RMK A01
KMMI 051115Z AUTO 00000KT 10SM CLR M03/M03 A3009 RMK A01
KMMI 051055Z AUTO 00000KT 10SM CLR M03/M03 A3009 RMK A01
KMMI 051035Z AUTO 00000KT 10SM CLR M03/M03 A3009 RMK A01
KMMI 051015Z AUTO 00000KT 10SM CLR M03/M03 A3008 RMK A01
KMMI 050955Z AUTO 00000KT 10SM CLR M03/M03 A3008 RMK A01
KMMI 050935Z AUTO 00000KT 10SM CLR M02/M03 A3008 RMK A01
KMMI 050915Z AUTO 00000KT 10SM CLR M02/M03 A3008 RMK A01
KMMI 050855Z AUTO 00000KT 10SM CLR M02/M03 A3008 RMK A01
KMMI 050835Z AUTO 00000KT 10SM CLR M02/M02 A3007 RMK A01
KMMI 050810Z AUTO 00000KT 10SM CLR M02/M02 A3007 RMK A01
KMMI 050755Z AUTO 00000KT 10SM CLR M02/M02 A3007 RMK A01
KMMI 050735Z AUTO 00000KT 10SM CLR M01/M02 A3006 RMK A01
KMMI 050715Z AUTO 00000KT 10SM CLR M01/M02 A3005 RMK A01
KMMI 050655Z AUTO 00000KT 10SM CLR M01/M02 A3005 RMK A01
KMMI 050615Z AUTO 00000KT 10SM CLR M01/M02 A3003 RMK A01
KMMI 050555Z AUTO 00000KT 10SM CLR M00/M01 A3003 RMK A01
KMMI 050535Z AUTO 00000KT 10SM CLR M00/M01 A3003 RMK A01
KMMI 050515Z AUTO 00000KT 10SM CLR M00/M02 A3002 RMK A01
KMMI 050455Z AUTO 00000KT 10SM CLR 00/M01 A3002 RMK A01
KMMI 050435Z AUTO 00000KT 10SM CLR M00/M01 A3002 RMK A01
KMMI 050415Z AUTO 00000KT 10SM CLR 00/M01 A3001 RMK A01
KMMI 050355Z AUTO 00000KT 10SM CLR 00/M01 A3001 RMK A01
KMMI 050335Z AUTO 00000KT 10SM CLR 00/M01 A3000 RMK A01
KMMI 050315Z AUTO 00000KT 10SM CLR 01/M01 A3000 RMK A01
KMMI 050255Z AUTO 00000KT 10SM CLR 01/M01 A2999 RMK A01
KMMI 050235Z AUTO 00000KT 10SM CLR 02/M01 A2999 RMK A01
KMMI 050215Z AUTO 00000KT 10SM CLR 02/M01 A2998 RMK A01
KMMI 050155Z AUTO 00000KT 10SM CLR 02/M01 A2998 RMK A01
KMMI 050135Z AUTO 00000KT 10SM CLR 03/M00 A2998 RMK A01
KMMI 050115Z AUTO 00000KT 10SM CLR 04/M01 A2998 RMK A01
KMMI 050055Z AUTO 00000KT 9SM CLR 04/M01 A2997 RMK A01
KMMI 050035Z AUTO 00000KT 10SM CLR 05/M01 A2997 RMK A01
KMMI 050015Z AUTO 00000KT 10SM CLR 05/M01 A2996 RMK A01
KMMI 042355Z AUTO 00000KT 10SM CLR 06/M00 A2995 RMK A01
KMMI 042335Z AUTO 00000KT 10SM CLR 07/M01 A2994 RMK A01
KMMI 042315Z AUTO 00000KT 10SM CLR 08/M02 A2994 RMK A01
KMMI 042255Z AUTO 00000KT 10SM CLR 10/M03 A2993 RMK A01
KMMI 042235Z AUTO 00000KT 10SM CLR 12/M03 A2992 RMK A01
KMMI 042215Z AUTO 00000KT 10SM CLR 13/M04 A2991 RMK A01
KMMI 042155Z AUTO 30005KT 10SM CLR 14/M05 A2991 RMK A01
KMMI 042135Z AUTO 30005G11KT 10SM CLR 14/M05 A2990 RMK A01
KMMI 042115Z AUTO 28007KT 10SM CLR 15/M05 A2990 RMK A01
KMMI 042055Z AUTO 27008G13KT 10SM CLR 14/M04 A2989 RMK A01
KMMI 042035Z AUTO VRB04KT 10SM CLR 14/M02 A2989 RMK A01
KMMI 042015Z AUTO 23007KT 10SM CLR 14/M01 A2988 RMK A01
KMMI 041955Z AUTO 23008KT 190V250 10SM CLR 13/M01 A2988 RMK A01
KMMI 041935Z AUTO 26009KT 10SM CLR 13/M01 A2988 RMK A01
KMMI 041915Z AUTO VRB04G11KT 10SM CLR 13/M01 A2988 RMK A01
KMMI 041855Z AUTO 25009KT 10SM CLR 13/M01 A2989 RMK A01
KMMI 041835Z AUTO 24009KT 10SM CLR 12/M00 A2990 RMK A01
KMMI 041815Z AUTO 26008KT 10SM CLR 12/M00 A2991 RMK A01
KMMI 041755Z AUTO VRB03G11KT 10SM CLR 11/00 A2991 RMK A01
KMMI 041735Z AUTO 24008KT 10SM CLR 11/01 A2992 RMK A01
KMMI 041715Z AUTO VRB06G12KT 10SM CLR 10/00 A2992 RMK A01
KMMI 041655Z AUTO VRB04KT 10SM CLR 10/01 A2993 RMK A01
KMMI 041635Z AUTO VRB05G11KT 10SM CLR 09/01 A2993 RMK A01
KMMI 041615Z AUTO VRB05KT 10SM CLR 09/01 A2993 RMK A01
KMMI 041555Z AUTO 24009KT 10SM CLR 08/02 A2993 RMK A01
KMMI 041535Z AUTO 23007KT 10SM CLR 07/01 A2993 RMK A01
KMMI 041515Z AUTO 24006KT 10SM CLR 05/01 A2993 RMK A01
KMMI 041455Z AUTO 24003KT 10SM CLR 04/01 A2993 RMK A01
KMMI 041435Z AUTO VRB03KT 10SM CLR 02/M00 A2993 RMK A01
KMMI 041415Z AUTO 00000KT 10SM CLR 01/M01 A2993 RMK A01
KMMI 041355Z AUTO 00000KT 10SM CLR M00/M01 A2992 RMK A01
KMMI 041335Z AUTO 00000KT 9SM CLR M01/M02 A2992 RMK A01